Time;durP1;ratioP1;P1;durP2;ratioP2;P2;SDS_P1;SDS_P2;PMS_P1;PMS_P2;Temp;Humidity;BMP_temperature;BMP_pressure;BME280_temperature;BME280_humidity;BME280_pressure;Samples;Min_cycle;Max_cycle;Signal;HPM_P1;HPM_P2
2021/08/11 00:01:36;;;;;;;21.58;13.68;;;;;;;15.96;86.77;101809.44;4832241;29;20514;-60
2021/08/11 00:04:03;;;;;;;23.48;14.88;;;;;;;15.94;87.03;101810.56;4841562;29;20053;-64
2021/08/11 00:06:30;;;;;;;25.13;15.07;;;;;;;15.93;87.31;101812.38;4833096;29;20144;-62
2021/08/11 00:08:56;;;;;;;22.15;15.27;;;;;;;15.90;87.27;101804.78;4835615;29;20427;-62
2021/08/11 00:11:23;;;;;;;20.13;13.50;;;;;;;15.86;86.96;101799.94;4828386;29;20137;-62
2021/08/11 00:13:49;;;;;;;22.27;14.15;;;;;;;15.81;86.84;101811.00;4841346;29;20077;-63
2021/08/11 00:16:16;;;;;;;20.63;14.75;;;;;;;15.73;87.17;101801.19;4841116;29;20156;-61
2021/08/11 00:18:42;;;;;;;23.23;13.88;;;;;;;15.71;86.38;101802.31;4835224;29;20083;-61
2021/08/11 00:21:09;;;;;;;19.52;13.88;;;;;;;15.68;86.64;101803.47;4837912;29;20064;-62
2021/08/11 00:23:35;;;;;;;20.23;13.75;;;;;;;15.60;87.04;101803.38;4829222;29;20092;-61
2021/08/11 00:26:02;;;;;;;21.48;13.13;;;;;;;15.56;86.90;101805.53;4835268;29;20056;-61
2021/08/11 00:28:28;;;;;;;20.20;13.10;;;;;;;15.50;87.56;101803.47;4830822;29;20089;-61
2021/08/11 00:30:55;;;;;;;22.17;13.38;;;;;;;15.46;88.24;101802.13;4841035;29;20470;-61
2021/08/11 00:33:22;;;;;;;22.90;13.77;;;;;;;15.43;88.39;101800.63;4835895;29;20189;-61
2021/08/11 00:35:48;;;;;;;23.55;13.70;;;;;;;15.44;88.64;101804.09;4839304;29;20473;-61
2021/08/11 00:38:15;;;;;;;23.27;14.43;;;;;;;15.43;88.61;101811.22;4837193;29;20148;-61
2021/08/11 00:40:41;;;;;;;22.88;14.13;;;;;;;15.40;88.59;101805.41;4833638;29;20395;-61
2021/08/11 00:43:09;;;;;;;24.20;15.27;;;;;;;15.42;89.88;101808.72;4840868;29;20144;-61
2021/08/11 00:45:37;;;;;;;24.60;15.43;;;;;;;15.43;90.03;101810.41;4835964;29;20096;-61
2021/08/11 00:48:05;;;;;;;26.48;15.85;;;;;;;15.43;90.01;101811.22;4843022;29;20067;-61
2021/08/11 00:50:31;;;;;;;21.60;14.05;;;;;;;15.45;88.92;101813.72;4827048;29;20471;-61
2021/08/11 00:52:58;;;;;;;22.33;15.52;;;;;;;15.38;88.94;101805.56;4838120;29;20854;-61
2021/08/11 00:55:24;;;;;;;22.25;13.98;;;;;;;15.36;87.61;101812.81;4835527;29;20740;-62
2021/08/11 00:57:53;;;;;;;26.77;14.43;;;;;;;15.31;88.10;101807.16;4847066;29;20140;-61
2021/08/11 01:00:20;;;;;;;21.98;13.55;;;;;;;15.29;87.30;101809.13;4841940;29;20136;-61
2021/08/11 01:02:50;;;;;;;20.42;14.48;;;;;;;15.21;88.62;101809.03;4835119;29;20160;-61
2021/08/11 01:05:19;;;;;;;29.35;14.43;;;;;;;15.19;89.23;101811.00;4840778;29;20054;-62
2021/08/11 01:07:46;;;;;;;21.20;15.00;;;;;;;15.18;89.46;101807.53;4835445;29;20194;-61
2021/08/11 01:10:13;;;;;;;20.75;14.27;;;;;;;15.18;89.34;101807.53;4843797;29;20144;-60
2021/08/11 01:12:39;;;;;;;22.45;14.82;;;;;;;15.19;89.94;101806.56;4838619;29;20510;-61
2021/08/11 01:15:07;;;;;;;21.80;15.27;;;;;;;15.17;90.71;101815.63;4844055;29;20920;-61
2021/08/11 01:17:33;;;;;;;21.42;14.50;;;;;;;15.21;88.56;101812.53;4828495;29;20053;-61
2021/08/11 01:20:03;;;;;;;23.95;14.73;;;;;;;15.18;88.41;101806.72;4839589;29;20164;-61
2021/08/11 01:22:40;;;;;;;21.48;14.13;;;;;;;15.13;88.39;101806.34;4841519;29;20053;-61
2021/08/11 01:25:06;;;;;;;24.50;14.65;;;;;;;15.13;88.53;101820.41;4839537;29;20072;-61
2021/08/11 01:28:10;;;;;;;21.98;14.95;;;;;;;15.11;88.58;101816.22;4843714;29;20756;-61
2021/08/11 01:30:53;;;;;;;22.98;14.20;;;;;;;15.06;87.86;101816.69;4837579;29;20141;-61
2021/08/11 01:33:49;;;;;;;27.88;16.20;;;;;;;14.95;89.00;101814.28;4841424;29;20055;-62
2021/08/11 01:36:49;;;;;;;28.40;15.73;;;;;;;14.97;90.35;101828.16;4841099;29;20489;-62
2021/08/11 01:39:25;;;;;;;21.17;13.90;;;;;;;14.93;88.72;101819.69;4838527;29;20161;-61
2021/08/11 01:41:57;;;;;;;24.00;14.77;;;;;;;14.88;89.64;101831.69;4842052;29;20068;-62
2021/08/11 01:44:32;;;;;;;23.23;14.68;;;;;;;14.88;89.91;101834.34;4837767;29;20088;-61
2021/08/11 01:46:59;;;;;;;25.45;14.82;;;;;;;14.86;88.84;101823.94;4829422;29;20506;-61
2021/08/11 01:49:28;;;;;;;23.80;15.60;;;;;;;14.79;89.33;101825.53;4844520;29;20050;-62
2021/08/11 01:51:54;;;;;;;;;;;;;;;14.79;89.91;101825.53;4835607;29;20523;-62
2021/08/11 01:54:24;;;;;;;24.75;14.63;;;;;;;14.81;89.53;101826.19;4841724;29;19938;-61
2021/08/11 01:56:51;;;;;;;24.98;15.45;;;;;;;14.78;88.73;101824.69;4832763;29;20136;-61
2021/08/11 01:59:18;;;;;;;24.80;15.32;;;;;;;14.72;88.57;101822.66;4836483;29;20054;-61
2021/08/11 02:01:44;;;;;;;25.20;15.32;;;;;;;14.70;89.26;101816.69;4834619;29;20528;-61
2021/08/11 02:04:13;;;;;;;25.17;15.15;;;;;;;14.69;89.01;101817.66;4840115;29;20068;-61
2021/08/11 02:06:40;;;;;;;25.42;14.68;;;;;;;14.68;87.86;101816.00;4841861;29;20149;-62
2021/08/11 02:09:06;;;;;;;26.60;15.57;;;;;;;14.62;88.14;101821.84;4831965;29;20053;-62
2021/08/11 02:11:38;;;;;;;26.10;15.43;;;;;;;14.57;89.19;101814.41;4836245;29;20131;-62
2021/08/11 02:14:06;;;;;;;26.30;14.85;;;;;;;14.61;89.54;101825.50;4829701;29;20140;-62
2021/08/11 02:16:33;;;;;;;25.55;16.35;;;;;;;14.60;89.57;101811.47;4842154;29;20136;-62
2021/08/11 02:18:59;;;;;;;23.48;15.60;;;;;;;14.58;88.37;101813.44;4832947;29;20065;-61
2021/08/11 02:21:26;;;;;;;24.25;14.63;;;;;;;14.55;87.91;101816.31;4842692;29;20079;-61
2021/08/11 02:23:52;;;;;;;23.35;14.23;;;;;;;14.56;87.83;101815.41;4836200;29;20148;-61
2021/08/11 02:26:28;;;;;;;29.98;15.75;;;;;;;14.48;88.67;101811.78;4833951;29;20371;-61
2021/08/11 02:29:05;;;;;;;25.73;15.48;;;;;;;14.43;88.91;101812.22;4838488;29;20133;-62
2021/08/11 02:31:42;;;;;;;23.65;14.25;;;;;;;14.37;89.61;101813.66;4841657;29;20150;-61
2021/08/11 02:34:17;;;;;;;20.88;14.15;;;;;;;14.37;90.13;101810.19;4842697;29;20140;-62
2021/08/11 02:36:51;;;;;;;22.67;13.27;;;;;;;14.37;88.70;101803.09;4834473;29;20157;-62
2021/08/11 02:39:25;;;;;;;20.20;13.57;;;;;;;14.35;89.01;101806.88;4839857;29;20199;-62
2021/08/11 02:41:56;;;;;;;18.77;13.40;;;;;;;14.29;89.74;101808.28;4831363;29;20060;-62
2021/08/11 02:44:30;;;;;;;22.83;13.57;;;;;;;14.31;89.22;101801.03;4840794;29;20153;-61
2021/08/11 02:46:58;;;;;;;21.90;13.90;;;;;;;14.34;89.26;101802.56;4836019;29;20489;-62
2021/08/11 02:49:30;;;;;;;21.58;12.77;;;;;;;14.33;89.19;101798.25;4840096;29;20058;-62
2021/08/11 02:51:59;;;;;;;21.48;14.10;;;;;;;14.33;88.55;101808.78;4829647;29;20146;-62
2021/08/11 02:54:26;;;;;;;21.35;13.50;;;;;;;14.31;88.91;101808.97;4836015;29;20136;-62
2021/08/11 02:56:54;;;;;;;22.63;13.52;;;;;;;14.31;88.80;101803.69;4837198;29;20144;-62
2021/08/11 02:59:24;;;;;;;23.33;13.73;;;;;;;14.28;87.83;101806.59;4841657;29;20138;-61
2021/08/11 03:01:54;;;;;;;24.25;13.55;;;;;;;14.21;88.41;101803.72;4840209;29;20148;-61
2021/08/11 03:04:22;;;;;;;22.58;14.57;;;;;;;14.15;89.77;101812.25;4833504;29;20490;-62
2021/08/11 03:06:49;;;;;;;26.58;14.80;;;;;;;14.16;89.17;101810.41;4837150;29;20110;-61
2021/08/11 03:09:15;;;;;;;21.40;14.85;;;;;;;14.15;90.26;101812.25;4831540;29;20149;-62
2021/08/11 03:11:42;;;;;;;24.90;14.65;;;;;;;14.16;90.39;101821.78;4838858;29;20141;-61
2021/08/11 03:14:14;;;;;;;24.63;14.15;;;;;;;14.11;89.61;101824.03;4836177;29;20140;-60
2021/08/11 03:16:41;;;;;;;21.25;13.77;;;;;;;14.08;88.95;101816.41;4842135;29;20057;-61
2021/08/11 03:19:08;;;;;;;21.83;14.10;;;;;;;14.09;89.68;101822.53;4835379;29;20054;-63
2021/08/11 03:21:37;;;;;;;21.17;12.63;;;;;;;14.08;89.79;101824.34;4833630;29;20148;-62
2021/08/11 03:24:04;;;;;;;23.70;14.02;;;;;;;14.04;89.75;101822.97;4843509;29;20057;-62
2021/08/11 03:26:30;;;;;;;30.65;14.25;;;;;;;14.04;90.80;101818.50;4835881;29;20061;-61
2021/08/11 03:29:01;;;;;;;20.95;13.25;;;;;;;14.04;89.88;101820.31;4844372;29;20136;-62
2021/08/11 03:31:29;;;;;;;23.05;12.95;;;;;;;14.06;89.76;101830.75;4836092;29;20081;-61
2021/08/11 03:33:56;;;;;;;21.35;14.25;;;;;;;14.09;90.51;101825.97;4839286;29;20057;-63
2021/08/11 03:36:23;;;;;;;23.15;12.57;;;;;;;14.09;90.09;101820.72;4830011;29;20576;-62
2021/08/11 03:38:49;;;;;;;27.60;13.88;;;;;;;14.11;88.78;101821.38;4842218;29;20142;-61
2021/08/11 03:41:16;;;;;;;21.10;13.25;;;;;;;14.09;89.41;101818.06;4839028;29;20149;-61
2021/08/11 03:43:42;;;;;;;24.83;13.98;;;;;;;14.07;90.17;101816.56;4835594;29;20100;-63
2021/08/11 03:46:09;;;;;;;20.63;13.23;;;;;;;14.07;90.62;101817.38;4843111;29;20554;-63
2021/08/11 03:48:36;;;;;;;22.52;12.90;;;;;;;14.02;89.29;101817.81;4826337;29;20058;-61
2021/08/11 03:51:02;;;;;;;24.08;13.65;;;;;;;14.03;89.78;101811.59;4837641;29;20140;-63
2021/08/11 03:53:29;;;;;;;20.80;13.25;;;;;;;14.02;89.89;101807.28;4834526;29;20092;-61
2021/08/11 03:55:55;;;;;;;20.25;13.13;;;;;;;14.04;89.55;101813.25;4843867;29;20566;-63
2021/08/11 03:58:22;;;;;;;24.55;13.75;;;;;;;14.04;90.16;101815.06;4832219;29;20145;-63
2021/08/11 04:00:48;;;;;;;24.00;13.43;;;;;;;14.03;88.83;101810.75;4833598;29;21074;-63
2021/08/11 04:03:15;;;;;;;22.83;13.90;;;;;;;14.01;89.26;101807.41;4837267;29;20054;-63
2021/08/11 04:05:41;;;;;;;21.90;13.02;;;;;;;14.02;89.08;101811.72;4833783;29;20105;-62
2021/08/11 04:08:08;;;;;;;22.15;14.73;;;;;;;14.01;90.13;101803.00;4838413;29;20145;-63
2021/08/11 04:10:34;;;;;;;20.48;13.75;;;;;;;13.99;91.08;101806.72;4831504;29;20153;-63
2021/08/11 04:13:01;;;;;;;22.10;14.48;;;;;;;14.01;91.85;101810.06;4840805;29;20145;-63
2021/08/11 04:15:27;;;;;;;32.67;17.13;;;;;;;14.06;92.69;101820.19;4826302;29;20072;-63
2021/08/11 04:17:54;;;;;;;26.63;15.60;;;;;;;14.08;93.73;101819.06;4836814;29;20149;-63
2021/08/11 04:20:20;;;;;;;34.17;16.80;;;;;;;14.12;nan;101822.25;4840408;29;20079;-63
2021/08/11 04:22:47;;;;;;;39.97;18.55;;;;;;;14.16;95.09;101823.63;4833460;29;20050;-62
2021/08/11 04:25:14;;;;;;;34.42;16.02;;;;;;;14.18;95.02;101827.75;4838658;29;20082;-63
2021/08/11 04:27:41;;;;;;;42.15;19.20;;;;;;;14.18;95.03;101826.94;4832731;29;20175;-63
2021/08/11 04:30:08;;;;;;;46.42;20.13;;;;;;;14.21;96.53;101837.19;4836025;29;20141;-62
2021/08/11 04:32:35;;;;;;;78.10;21.88;;;;;;;14.23;96.54;101827.34;4836308;29;20132;-62
2021/08/11 04:35:06;;;;;;;105.32;22.05;;;;;;;14.23;98.38;101824.69;4844923;29;20700;-63
2021/08/11 04:37:35;;;;;;;48.60;19.10;;;;;;;14.23;98.75;101829.97;4836418;29;20164;-63
2021/08/11 04:40:04;;;;;;;79.28;21.70;;;;;;;14.23;99.81;101828.16;4844845;29;21604;-63
2021/08/11 04:42:30;;;;;;;;;;;;;;;14.28;100.00;101833.00;4834832;29;20888;-62
2021/08/11 04:44:57;;;;;;;89.47;21.00;;;;;;;14.30;100.00;101823.13;4837811;29;19928;-63
2021/08/11 04:47:23;;;;;;;80.95;21.35;;;;;;;14.36;100.00;101829.63;4843823;29;20791;-63
2021/08/11 04:49:50;;;;;;;54.03;21.02;;;;;;;14.40;100.00;101836.28;4836941;29;20067;-63
2021/08/11 04:52:17;;;;;;;87.03;23.73;;;;;;;14.41;100.00;101844.06;4841824;29;20084;-62
2021/08/11 04:54:44;;;;;;;89.68;22.42;;;;;;;14.43;100.00;101842.09;4837361;29;20061;-63
2021/08/11 04:57:10;;;;;;;123.55;22.98;;;;;;;14.46;100.00;101840.13;4843846;29;20060;-63
2021/08/11 04:59:37;;;;;;;81.75;20.90;;;;;;;14.46;100.00;101846.25;4833310;29;20539;-63
2021/08/11 05:02:03;;;;;;;71.82;21.77;;;;;;;14.50;100.00;101846.78;4841394;29;20476;-63
2021/08/11 05:04:30;;;;;;;94.63;22.17;;;;;;;14.52;100.00;101848.28;4839389;29;20061;-63
2021/08/11 05:06:57;;;;;;;72.20;19.65;;;;;;;14.58;100.00;101841.63;4832769;29;20459;-63
2021/08/11 05:09:23;;;;;;;133.75;22.83;;;;;;;14.58;100.00;101849.53;4841026;29;20062;-60
2021/08/11 05:11:50;;;;;;;50.58;22.15;;;;;;;14.62;100.00;101848.25;4833944;29;20471;-63
2021/08/11 05:14:16;;;;;;;69.20;23.73;;;;;;;14.62;100.00;101843.84;4842768;29;20065;-63
2021/08/11 05:16:43;;;;;;;81.43;23.00;;;;;;;14.57;100.00;101851.34;4837659;29;20087;-63
2021/08/11 05:19:09;;;;;;;51.08;21.58;;;;;;;14.64;100.00;101851.59;4835941;29;20447;-63
2021/08/11 05:21:37;;;;;;;72.47;24.60;;;;;;;14.66;100.00;101849.63;4835105;29;20145;-62
2021/08/11 05:24:04;;;;;;;99.43;23.60;;;;;;;14.73;100.00;101857.81;4843955;29;20547;-63
2021/08/11 05:26:30;;;;;;;47.58;23.38;;;;;;;14.80;100.00;101851.78;4842602;29;20153;-62
2021/08/11 05:28:57;;;;;;;50.05;24.05;;;;;;;14.88;100.00;101860.75;4839037;29;20390;-63
2021/08/11 05:31:23;;;;;;;52.28;22.40;;;;;;;14.91;100.00;101863.94;4838993;29;20100;-63
2021/08/11 05:33:50;;;;;;;92.25;20.95;;;;;;;14.93;100.00;101861.97;4829422;29;20090;-62
2021/08/11 05:36:16;;;;;;;54.95;19.55;;;;;;;15.06;100.00;101871.38;4846537;29;20539;-63
2021/08/11 05:38:45;;;;;;;67.15;19.73;;;;;;;15.12;100.00;101871.59;4838727;29;20061;-63
2021/08/11 05:41:12;;;;;;;93.28;21.55;;;;;;;15.22;100.00;101874.16;4844462;29;20543;-62
2021/08/11 05:43:39;;;;;;;118.15;18.92;;;;;;;15.16;100.00;101872.13;4837939;29;20499;-63
2021/08/11 05:46:06;;;;;;;86.55;21.08;;;;;;;15.22;100.00;101879.44;4838884;29;20831;-63
2021/08/11 05:48:33;;;;;;;68.50;22.80;;;;;;;15.27;100.00;101873.69;4838493;29;20061;-63
2021/08/11 05:50:59;;;;;;;100.82;21.67;;;;;;;15.24;100.00;101882.75;4832794;29;20054;-63
2021/08/11 05:53:26;;;;;;;42.05;21.30;;;;;;;15.33;100.00;101876.56;4845371;29;20491;-62
2021/08/11 05:55:52;;;;;;;53.80;20.77;;;;;;;15.37;100.00;101879.75;4836492;29;20150;-63
2021/08/11 05:58:19;;;;;;;62.28;21.25;;;;;;;15.41;100.00;101884.56;4842450;29;20562;-63
2021/08/11 06:00:45;;;;;;;43.10;21.92;;;;;;;15.49;100.00;101886.44;4827180;29;20522;-63
2021/08/11 06:03:12;;;;;;;43.22;21.52;;;;;;;15.54;99.93;101891.28;4840736;29;20058;-63
2021/08/11 06:05:39;;;;;;;48.25;21.48;;;;;;;15.62;99.54;101889.53;4835665;29;20089;-64
2021/08/11 06:08:05;;;;;;;61.60;22.00;;;;;;;15.65;99.59;101892.84;4843178;29;20088;-63
2021/08/11 06:10:32;;;;;;;50.42;21.38;;;;;;;15.70;99.45;101886.13;4839692;29;20563;-63
2021/08/11 06:12:59;;;;;;;38.95;22.13;;;;;;;15.73;99.72;101882.38;4831935;29;20481;-63
2021/08/11 06:15:26;;;;;;;38.83;20.85;;;;;;;15.79;99.02;101890.50;4836289;29;20077;-63
2021/08/11 06:17:52;;;;;;;35.63;21.50;;;;;;;15.84;99.03;101886.56;4838008;29;20436;-63
2021/08/11 06:20:22;;;;;;;44.17;22.98;;;;;;;15.92;98.84;101891.94;4846692;29;20158;-63
2021/08/11 06:22:49;;;;;;;41.35;22.20;;;;;;;15.96;98.26;101894.09;4841424;29;20088;-62
2021/08/11 06:25:16;;;;;;;43.78;24.60;;;;;;;16.01;98.21;101898.91;4847485;29;20054;-62
2021/08/11 06:27:43;;;;;;;44.20;24.42;;;;;;;16.06;98.21;101904.59;4844974;29;20503;-63
2021/08/11 06:30:11;;;;;;;41.45;21.80;;;;;;;16.12;97.22;101908.44;4838126;29;20467;-62
2021/08/11 06:32:38;;;;;;;45.58;24.10;;;;;;;16.18;97.05;101905.16;4846030;29;20109;-63
2021/08/11 06:35:05;;;;;;;41.88;24.63;;;;;;;16.29;97.64;101909.31;4842381;29;20073;-63
2021/08/11 06:37:32;;;;;;;40.75;24.00;;;;;;;16.35;97.63;101903.44;4847714;29;20529;-63
2021/08/11 06:39:58;;;;;;;46.05;24.80;;;;;;;16.36;97.91;101903.25;4838852;29;20137;-63
2021/08/11 06:42:24;;;;;;;49.00;24.98;;;;;;;16.43;96.96;101905.28;4840537;29;20065;-62
2021/08/11 06:44:51;;;;;;;45.00;25.38;;;;;;;16.49;96.76;101907.28;4843302;29;20076;-63
2021/08/11 06:47:17;;;;;;;46.33;23.58;;;;;;;16.56;96.96;101908.31;4848082;29;20069;-63
2021/08/11 06:49:44;;;;;;;43.70;21.30;;;;;;;16.64;94.97;101916.31;4846640;29;20178;-63
2021/08/11 06:52:10;;;;;;;48.38;24.88;;;;;;;16.78;95.29;101923.63;4837422;29;20532;-62
2021/08/11 06:54:36;;;;;;;46.97;25.35;;;;;;;16.88;95.31;101923.53;4842209;29;20205;-62
2021/08/11 06:57:03;;;;;;;54.60;26.33;;;;;;;16.94;94.78;101927.34;4838700;29;20145;-63
2021/08/11 06:59:30;;;;;;;47.80;23.20;;;;;;;16.97;94.41;101935.81;4846086;29;20490;-62
2021/08/11 07:01:57;;;;;;;48.22;24.33;;;;;;;17.05;95.23;101924.38;4839667;29;20077;-63
2021/08/11 07:04:23;;;;;;;47.53;24.52;;;;;;;17.07;95.76;101927.72;4848823;29;20058;-63
2021/08/11 07:06:50;;;;;;;47.30;21.40;;;;;;;17.11;94.97;101931.72;4840890;29;20558;-63
2021/08/11 07:09:18;;;;;;;49.85;25.58;;;;;;;17.10;95.33;101932.69;4840993;29;20089;-62
2021/08/11 07:11:44;;;;;;;;;;;;;;;17.19;95.68;101937.03;4845461;29;20414;-63
2021/08/11 07:14:11;;;;;;;52.63;24.85;;;;;;;17.23;96.28;101929.59;4839837;29;20027;-63
2021/08/11 07:16:38;;;;;;;50.35;22.55;;;;;;;17.26;95.13;101920.47;4846074;29;20068;-63
2021/08/11 07:19:05;;;;;;;58.28;27.20;;;;;;;17.34;96.17;101934.53;4840384;29;20053;-63
2021/08/11 07:21:31;;;;;;;53.40;26.08;;;;;;;17.46;96.14;101929.75;4842506;29;20251;-63
2021/08/11 07:23:58;;;;;;;65.53;29.02;;;;;;;17.42;97.76;101923.13;4836398;29;20583;-63
2021/08/11 07:26:24;;;;;;;60.60;25.67;;;;;;;17.64;96.21;101920.81;4846212;29;20521;-64
2021/08/11 07:28:50;;;;;;;55.33;26.35;;;;;;;17.79;93.23;101914.66;4840777;29;20762;-63
2021/08/11 07:31:17;;;;;;;58.88;26.75;;;;;;;17.92;92.15;101921.34;4847083;29;20140;-64
2021/08/11 07:33:44;;;;;;;55.60;24.85;;;;;;;18.04;89.51;101917.31;4845611;29;20208;-64
2021/08/11 07:36:10;;;;;;;65.40;26.45;;;;;;;18.12;89.74;101916.47;4838469;29;20474;-64
2021/08/11 07:38:37;;;;;;;54.83;23.85;;;;;;;18.12;89.22;101919.13;4843126;29;20077;-62
2021/08/11 07:41:03;;;;;;;52.35;25.00;;;;;;;18.23;87.43;101918.78;4838294;29;20164;-64
2021/08/11 07:43:30;;;;;;;59.83;25.20;;;;;;;18.30;86.75;101921.56;4845183;29;20148;-64
2021/08/11 07:45:56;;;;;;;63.75;25.17;;;;;;;18.43;87.38;101929.00;4839007;29;20129;-64
2021/08/11 07:48:33;;;;;;;50.90;23.40;;;;;;;18.48;86.35;101926.66;4845080;29;20092;-64
2021/08/11 07:51:00;;;;;;;55.75;23.73;;;;;;;18.53;84.40;101929.63;4831969;29;20390;-63
2021/08/11 07:53:26;;;;;;;53.20;20.55;;;;;;;18.45;83.72;101930.50;4845644;29;20110;-64
2021/08/11 07:55:52;;;;;;;44.88;18.38;;;;;;;18.55;82.72;101931.09;4846797;29;20145;-63
2021/08/11 07:58:23;;;;;;;43.78;18.50;;;;;;;18.64;82.63;101936.38;4840401;29;20174;-64
2021/08/11 08:00:51;;;;;;;52.35;19.80;;;;;;;18.67;82.21;101938.72;4843170;29;20088;-64
2021/08/11 08:03:18;;;;;;;49.22;20.25;;;;;;;18.63;80.05;101934.75;4839753;29;20153;-64
2021/08/11 08:05:45;;;;;;;43.42;19.83;;;;;;;18.70;80.59;101928.56;4848594;29;20406;-63
2021/08/11 08:08:11;;;;;;;45.90;19.92;;;;;;;18.74;80.62;101931.72;4844656;29;20601;-63
2021/08/11 08:10:38;;;;;;;48.88;19.23;;;;;;;18.88;81.39;101924.88;4848047;29;20153;-63
2021/08/11 08:13:04;;;;;;;46.30;18.65;;;;;;;18.97;80.34;101931.78;4845945;29;20467;-63
2021/08/11 08:15:31;;;;;;;47.65;19.33;;;;;;;19.06;80.63;101927.25;4846360;29;20110;-63
2021/08/11 08:17:57;;;;;;;64.68;22.05;;;;;;;19.13;79.04;101926.38;4847598;29;20060;-63
2021/08/11 08:20:24;;;;;;;49.55;22.98;;;;;;;19.27;78.58;101926.63;4842770;29;20085;-63
2021/08/11 08:22:50;;;;;;;60.45;21.85;;;;;;;19.42;78.66;101922.16;4851639;29;20448;-63
2021/08/11 08:25:21;;;;;;;54.88;21.58;;;;;;;19.67;77.53;101925.44;4844462;29;20062;-63
2021/08/11 08:27:50;;;;;;;55.22;22.73;;;;;;;19.97;76.87;101925.53;4851461;29;20078;-63
2021/08/11 08:30:33;;;;;;;57.90;24.88;;;;;;;20.17;73.88;101925.84;4838969;29;20076;-63
2021/08/11 08:32:59;;;;;;;59.30;23.85;;;;;;;20.42;73.72;101917.56;4848974;29;20148;-63
2021/08/11 08:35:26;;;;;;;53.20;22.02;;;;;;;20.65;74.13;101922.81;4845034;29;20141;-63
2021/08/11 08:37:52;;;;;;;56.78;24.42;;;;;;;20.83;73.06;101933.88;4849537;29;20059;-63
2021/08/11 08:40:20;;;;;;;50.70;23.58;;;;;;;21.12;71.62;101924.97;4848726;29;20058;-63
2021/08/11 08:42:47;;;;;;;55.60;24.95;;;;;;;21.30;70.67;101932.53;4839091;29;20077;-62
2021/08/11 08:45:14;;;;;;;62.40;25.67;;;;;;;21.53;71.83;101928.91;4847961;29;20060;-63
2021/08/11 08:47:41;;;;;;;59.95;25.17;;;;;;;21.67;69.38;101929.81;4844972;29;20506;-63
2021/08/11 08:50:10;;;;;;;62.20;24.95;;;;;;;21.49;68.69;101932.97;4850644;29;20136;-63
2021/08/11 08:52:38;;;;;;;64.63;27.73;;;;;;;21.48;68.54;101929.47;4842642;29;20144;-63
2021/08/11 08:55:05;;;;;;;63.08;25.40;;;;;;;21.58;69.55;101937.16;4846801;29;20156;-63
2021/08/11 08:57:32;;;;;;;70.00;28.23;;;;;;;21.51;69.03;101930.94;4842505;29;20049;-63
2021/08/11 08:59:58;;;;;;;62.15;25.20;;;;;;;21.46;70.10;101928.00;4848697;29;20152;-63
2021/08/11 09:02:25;;;;;;;63.75;24.60;;;;;;;21.59;70.42;101917.44;4848519;29;20088;-63
2021/08/11 09:04:51;;;;;;;57.53;24.98;;;;;;;21.60;69.14;101919.09;4847078;29;20053;-63
2021/08/11 09:07:19;;;;;;;59.95;25.08;;;;;;;21.63;69.39;101920.56;4847800;29;20072;-63
2021/08/11 09:09:46;;;;;;;55.30;23.17;;;;;;;21.62;69.99;101926.91;4836608;29;20088;-63
2021/08/11 09:12:18;;;;;;;58.30;23.88;;;;;;;21.65;69.72;101931.88;4848839;29;20576;-64
2021/08/11 09:14:48;;;;;;;55.30;24.33;;;;;;;21.61;69.73;101928.75;4843908;29;20545;-63
2021/08/11 09:17:38;;;;;;;51.05;22.38;;;;;;;21.66;69.73;101928.16;4847933;29;20052;-63
2021/08/11 09:20:07;;;;;;;53.58;23.10;;;;;;;21.45;70.25;101929.84;4844051;29;20098;-63
2021/08/11 09:22:47;;;;;;;61.97;24.67;;;;;;;21.48;69.99;101931.31;4843786;29;20184;-64
2021/08/11 09:25:14;;;;;;;54.95;22.58;;;;;;;21.36;70.94;101930.97;4838393;29;20052;-64
2021/08/11 09:27:43;;;;;;;53.35;23.63;;;;;;;21.41;69.58;101939.22;4848575;29;20085;-63
2021/08/11 09:30:24;;;;;;;52.65;23.45;;;;;;;21.72;69.29;101940.75;4849518;29;20465;-63
2021/08/11 09:32:55;;;;;;;51.75;21.95;;;;;;;22.17;69.64;101943.97;4846819;29;20088;-63
2021/08/11 09:35:34;;;;;;;52.08;23.45;;;;;;;22.30;67.59;101945.91;4844066;29;20054;-64
2021/08/11 09:38:05;;;;;;;59.45;25.88;;;;;;;22.35;66.96;101935.44;4838669;29;20137;-63
2021/08/11 09:40:35;;;;;;;52.53;23.17;;;;;;;22.54;65.93;101931.22;4847101;29;20144;-63
2021/08/11 09:43:07;;;;;;;49.00;21.52;;;;;;;22.92;65.44;101927.25;4841673;29;20077;-63
2021/08/11 09:45:48;;;;;;;51.97;21.65;;;;;;;23.23;64.95;101934.75;4848197;29;20165;-64
2021/08/11 09:48:17;;;;;;;46.03;23.17;;;;;;;23.21;63.13;101932.28;4841943;29;20149;-64
2021/08/11 09:50:49;;;;;;;44.58;22.27;;;;;;;23.29;63.62;101932.09;4841343;29;20068;-63
2021/08/11 09:53:23;;;;;;;48.47;21.08;;;;;;;23.10;62.07;101927.53;4842520;29;20053;-63
2021/08/11 09:55:55;;;;;;;45.58;21.30;;;;;;;23.29;62.59;101928.59;4848915;29;20053;-63
2021/08/11 09:58:21;;;;;;;41.40;19.25;;;;;;;23.41;63.92;101932.31;4841214;29;20137;-64
2021/08/11 10:00:48;;;;;;;50.17;21.90;;;;;;;23.58;62.37;101927.38;4847279;29;20554;-63
2021/08/11 10:03:14;;;;;;;38.95;20.88;;;;;;;23.86;62.25;101926.34;4845138;29;20045;-63
2021/08/11 10:05:41;;;;;;;49.78;20.35;;;;;;;23.57;61.18;101925.72;4841198;29;20079;-63
2021/08/11 10:08:08;;;;;;;35.72;18.00;;;;;;;23.72;62.86;101924.66;4847861;29;20153;-63
2021/08/11 10:10:52;;;;;;;41.38;19.80;;;;;;;23.27;61.67;101939.50;4838402;29;20090;-63
2021/08/11 10:13:22;;;;;;;41.38;19.15;;;;;;;22.96;62.91;101939.19;4847262;29;20133;-63
2021/08/11 10:15:49;;;;;;;37.50;19.15;;;;;;;22.97;63.74;101940.84;4839494;29;20085;-62
2021/08/11 10:18:21;;;;;;;47.75;24.70;;;;;;;22.71;64.20;101953.09;4842599;29;20054;-63
2021/08/11 10:20:51;;;;;;;48.30;24.67;;;;;;;22.48;65.19;101946.22;4840332;29;20093;-61
2021/08/11 10:23:20;;;;;;;48.95;25.55;;;;;;;22.36;65.28;101947.78;4845825;29;20499;-60
2021/08/11 10:25:48;;;;;;;42.50;23.02;;;;;;;22.35;66.32;101951.50;4842288;29;20462;-63
2021/08/11 10:28:20;;;;;;;44.65;23.00;;;;;;;22.36;66.00;101953.13;4847138;29;20152;-63
2021/08/11 10:30:48;;;;;;;30.92;16.88;;;;;;;22.44;63.89;101952.13;4841951;29;20063;-62
2021/08/11 10:33:16;;;;;;;38.67;21.63;;;;;;;22.36;63.68;101944.28;4837751;29;20403;-62
2021/08/11 10:35:45;;;;;;;37.42;19.80;;;;;;;22.40;62.63;101943.69;4848247;29;20056;-59
2021/08/11 10:38:12;;;;;;;41.13;22.05;;;;;;;22.89;63.23;101948.03;4841963;29;20180;-62
2021/08/11 10:40:41;;;;;;;44.10;22.75;;;;;;;23.12;62.05;101951.41;4846000;29;20527;-61
2021/08/11 10:43:12;;;;;;;40.40;21.13;;;;;;;23.27;62.35;101952.06;4837931;29;20088;-62
2021/08/11 10:45:39;;;;;;;41.17;24.70;;;;;;;23.28;61.80;101959.88;4840809;29;20049;-62
2021/08/11 10:48:16;;;;;;;28.00;16.85;;;;;;;23.71;60.36;101950.63;5109170;27;20384;-63
2021/08/11 10:50:45;;;;;;;23.00;13.88;;;;;;;23.81;55.27;101945.72;5114757;28;20055;-63
2021/08/11 10:53:12;;;;;;;23.35;13.00;;;;;;;23.72;56.63;101948.78;5111731;27;20475;-62
2021/08/11 10:55:44;;;;;;;22.88;12.20;;;;;;;23.85;54.86;101949.63;5115874;27;20455;-63
2021/08/11 10:58:31;;;;;;;17.73;9.93;;;;;;;23.97;56.74;101952.53;5109683;28;20142;-63
2021/08/11 11:00:57;;;;;;;13.68;8.38;;;;;;;24.12;54.38;101954.94;5106765;27;20083;-63
2021/08/11 11:03:47;;;;;;;13.68;8.25;;;;;;;24.34;52.38;101947.47;5115586;28;20052;-64
2021/08/11 11:06:13;;;;;;;17.90;8.82;;;;;;;24.65;52.98;101944.09;5108706;27;20051;-64
2021/08/11 11:08:40;;;;;;;17.33;10.15;;;;;;;24.84;54.11;101950.41;5113845;28;20131;-64
2021/08/11 11:11:34;;;;;;;16.23;7.70;;;;;;;25.24;52.36;101942.13;5106066;27;20617;-64
2021/08/11 11:14:01;;;;;;;17.65;8.93;;;;;;;25.51;51.36;101938.44;5110800;28;20046;-64
2021/08/11 11:16:59;;;;;;;13.23;8.20;;;;;;;25.83;51.80;101933.81;5105472;27;20083;-64